In Rescue
 
Open Full Screen Window  High Contrast Mode
July 25, 2021 7:33 AM EDT
Weather Information
Wind Direction
  ---
Wind Speed
  00 kt (0 mph)
Wind Gust
  00 kt (0 mph)
Altimeter
29.78 in
Visibility
10 SM
Temperature
20° C
68° F
Dewpoint
18° C
64° F
Humidity
88%
1hr Rain Fall
00.00 in.
24hr Rain Fall
00.08 in.
Sky Condition
Clear
VFR

METAR KDRM 251133Z AUTO 00000KT 10SM CLR 20/18 A2978 RMK AO2 T01950180

FAA Disclaimer: The data displayed is for advisory purposes only and is not to be used for flight planning or operations.